createdAt,value
2018-07-28T00:01:28.081Z,29.58
2018-07-28T00:03:56.591Z,29.59
2018-07-28T00:06:25.307Z,29.58
2018-07-28T00:08:53.944Z,29.59
2018-07-28T00:11:22.455Z,29.57
2018-07-28T00:13:51.203Z,29.64
2018-07-28T00:16:19.810Z,29.58
2018-07-28T00:18:48.665Z,29.56
2018-07-28T00:21:17.199Z,29.55
2018-07-28T00:23:45.683Z,29.55
2018-07-28T00:26:17.381Z,29.63
2018-07-28T00:28:47.199Z,29.54
2018-07-28T00:31:15.752Z,29.58
2018-07-28T00:33:44.589Z,29.63
2018-07-28T00:36:13.460Z,29.62
2018-07-28T00:38:42.129Z,29.62
2018-07-28T00:41:10.808Z,29.60
2018-07-28T00:43:39.340Z,29.61
2018-07-28T00:46:08.152Z,29.49
2018-07-28T00:48:36.751Z,29.49
2018-07-28T00:51:05.405Z,29.48
2018-07-28T00:53:34.236Z,29.47
2018-07-28T00:56:02.885Z,29.46
2018-07-28T00:58:31.443Z,29.45
2018-07-28T01:00:59.976Z,29.45
2018-07-28T01:03:28.656Z,29.47
2018-07-28T01:05:57.234Z,29.47
2018-07-28T01:08:25.811Z,29.47
2018-07-28T01:10:54.432Z,29.45
2018-07-28T01:13:23.031Z,29.44
2018-07-28T01:15:51.617Z,29.42
2018-07-28T01:18:20.240Z,29.40
2018-07-28T01:20:48.761Z,29.40
2018-07-28T01:23:17.508Z,29.38
2018-07-28T01:25:46.272Z,29.37
2018-07-28T01:28:15.069Z,29.40
2018-07-28T01:30:43.705Z,29.39
2018-07-28T01:33:12.200Z,29.37
2018-07-28T01:35:40.770Z,29.39
2018-07-28T01:38:09.580Z,29.38
2018-07-28T01:40:38.083Z,29.38
2018-07-28T01:43:06.792Z,29.39
2018-07-28T01:45:35.561Z,29.38
2018-07-28T01:48:04.397Z,29.38
2018-07-28T01:50:32.920Z,29.38
2018-07-28T01:53:01.566Z,29.37
2018-07-28T01:55:30.129Z,29.37
2018-07-28T01:57:58.652Z,29.36
2018-07-28T02:00:27.283Z,29.36
2018-07-28T02:02:55.851Z,29.36
2018-07-28T02:05:24.456Z,29.36
2018-07-28T02:07:52.962Z,29.36
2018-07-28T02:10:21.504Z,29.35
2018-07-28T02:12:50.058Z,29.37
2018-07-28T02:15:18.568Z,29.37
2018-07-28T02:17:47.047Z,29.37
2018-07-28T02:20:15.661Z,29.36
2018-07-28T02:22:44.221Z,29.37
2018-07-28T02:25:12.808Z,29.36
2018-07-28T02:27:41.353Z,29.36
2018-07-28T02:30:09.972Z,29.35
2018-07-28T02:32:38.598Z,29.43
2018-07-28T02:35:07.782Z,29.49
2018-07-28T02:37:36.349Z,29.52
2018-07-28T02:40:05.421Z,29.52
2018-07-28T02:42:33.945Z,29.50
2018-07-28T02:45:02.609Z,29.51
2018-07-28T02:47:31.170Z,29.52
2018-07-28T02:49:59.790Z,29.51
2018-07-28T02:52:28.361Z,29.50
2018-07-28T02:54:57.036Z,29.49
2018-07-28T02:57:25.804Z,29.45
2018-07-28T02:59:54.313Z,29.35
2018-07-28T03:02:22.825Z,29.35
2018-07-28T03:04:51.339Z,29.32
2018-07-28T03:07:19.880Z,29.30
2018-07-28T03:09:48.401Z,29.31
2018-07-28T03:12:17.031Z,29.29
2018-07-28T03:14:46.511Z,29.31
2018-07-28T03:17:15.048Z,29.31
2018-07-28T03:19:43.632Z,29.29
2018-07-28T03:22:12.228Z,29.29
2018-07-28T03:24:41.180Z,29.30
2018-07-28T03:27:09.763Z,29.28
2018-07-28T03:29:38.344Z,29.26
2018-07-28T03:32:06.932Z,29.27
2018-07-28T03:34:35.444Z,29.24
2018-07-28T03:37:03.960Z,29.25
2018-07-28T03:39:32.747Z,29.24
2018-07-28T03:42:01.336Z,29.19
2018-07-28T03:44:29.920Z,29.24
2018-07-28T03:46:58.512Z,29.24
2018-07-28T03:49:27.223Z,29.24
2018-07-28T03:51:55.822Z,29.24
2018-07-28T03:54:24.471Z,29.10
2018-07-28T03:56:53.176Z,28.95
2018-07-28T03:59:21.724Z,28.74
2018-07-28T04:01:50.283Z,28.34
2018-07-28T04:04:18.875Z,28.13
2018-07-28T04:06:47.403Z,27.90
2018-07-28T04:09:16.043Z,27.73
2018-07-28T04:11:44.749Z,27.60
2018-07-28T04:14:13.488Z,27.40
2018-07-28T04:16:42.174Z,27.15
2018-07-28T04:19:10.776Z,26.96
2018-07-28T04:21:39.391Z,26.98
2018-07-28T04:24:08.189Z,26.92
2018-07-28T04:26:36.816Z,26.87
2018-07-28T04:29:05.538Z,26.73
2018-07-28T04:31:34.053Z,26.64
2018-07-28T04:34:02.537Z,26.59
2018-07-28T04:36:31.025Z,26.56
2018-07-28T04:38:59.526Z,26.46
2018-07-28T04:41:28.036Z,26.48
2018-07-28T04:43:56.585Z,26.48
2018-07-28T04:46:25.159Z,26.46
2018-07-28T04:48:53.692Z,26.47
2018-07-28T04:51:22.316Z,26.40
2018-07-28T04:53:50.855Z,26.34
2018-07-28T04:56:19.376Z,26.25
2018-07-28T04:58:48.004Z,26.33
2018-07-28T05:01:16.616Z,26.39
2018-07-28T05:03:45.181Z,26.52
2018-07-28T05:06:13.811Z,26.46
2018-07-28T05:08:42.444Z,26.26
2018-07-28T05:11:11.315Z,26.23
2018-07-28T05:13:40.118Z,26.08
2018-07-28T05:16:08.802Z,26.20
2018-07-28T05:18:37.719Z,26.32
2018-07-28T05:21:06.279Z,26.37
2018-07-28T05:23:34.921Z,26.40
2018-07-28T05:26:03.505Z,26.38
2018-07-28T05:28:32.036Z,26.40
2018-07-28T05:31:01.025Z,26.29
2018-07-28T05:33:29.901Z,26.39
2018-07-28T05:35:58.525Z,26.33
2018-07-28T05:38:27.123Z,26.41
2018-07-28T05:40:55.902Z,26.55
2018-07-28T05:43:24.505Z,26.60
2018-07-28T05:45:53.112Z,26.67
2018-07-28T05:48:21.715Z,26.69
2018-07-28T05:50:50.347Z,26.61
2018-07-28T05:53:19.041Z,26.62
2018-07-28T05:55:47.665Z,26.65
2018-07-28T05:58:16.378Z,26.66
2018-07-28T06:00:44.956Z,26.81
2018-07-28T06:03:13.694Z,26.86
2018-07-28T06:05:42.331Z,26.91
2018-07-28T06:08:11.072Z,27.00
2018-07-28T06:10:39.769Z,26.98
2018-07-28T06:13:08.499Z,26.97
2018-07-28T06:15:37.125Z,26.98
2018-07-28T06:18:06.027Z,26.88
2018-07-28T06:20:34.729Z,26.83
2018-07-28T06:23:03.389Z,26.79
2018-07-28T06:25:32.161Z,26.71
2018-07-28T06:28:00.914Z,26.71
2018-07-28T06:30:29.817Z,26.76
2018-07-28T06:32:58.452Z,26.85
2018-07-28T06:35:27.059Z,26.80
2018-07-28T06:37:55.679Z,26.92
2018-07-28T06:40:24.247Z,27.01
2018-07-28T06:42:52.794Z,27.05
2018-07-28T06:45:21.353Z,27.10
2018-07-28T06:47:50.091Z,27.07
2018-07-28T06:50:18.732Z,27.12
2018-07-28T06:52:47.303Z,27.17
2018-07-28T06:55:15.843Z,27.23
2018-07-28T06:57:44.389Z,27.28
2018-07-28T07:00:13.048Z,27.34
2018-07-28T07:02:41.708Z,27.39
2018-07-28T07:05:10.269Z,27.43
2018-07-28T07:07:38.871Z,25.81
2018-07-28T07:10:07.805Z,27.53
2018-07-28T07:12:36.493Z,27.57
2018-07-28T07:15:05.867Z,27.60
2018-07-28T07:17:34.513Z,27.65
2018-07-28T07:20:03.261Z,27.68
2018-07-28T07:22:31.912Z,27.71
2018-07-28T07:25:00.444Z,27.74
2018-07-28T07:27:28.996Z,27.76
2018-07-28T07:29:57.540Z,27.79
2018-07-28T07:32:26.095Z,27.82
2018-07-28T07:34:54.824Z,27.85
2018-07-28T07:37:23.424Z,27.89
2018-07-28T07:39:51.936Z,27.90
2018-07-28T07:42:20.489Z,27.93
2018-07-28T07:44:49.111Z,27.95
2018-07-28T07:47:17.790Z,27.98
2018-07-28T07:49:46.310Z,28.00
2018-07-28T07:52:14.840Z,28.02
2018-07-28T07:54:43.396Z,28.04
2018-07-28T07:57:11.989Z,28.06
2018-07-28T07:59:40.820Z,28.08
2018-07-28T08:02:09.471Z,28.10
2018-07-28T08:04:38.293Z,28.13
2018-07-28T08:07:06.890Z,28.15
2018-07-28T08:09:35.532Z,28.18
2018-07-28T08:12:04.116Z,28.19
2018-07-28T08:14:32.683Z,28.21
2018-07-28T08:17:01.288Z,28.23
2018-07-28T08:19:29.829Z,28.25
2018-07-28T08:21:58.372Z,28.28
2018-07-28T08:24:28.083Z,28.30
2018-07-28T08:26:56.977Z,28.31
2018-07-28T08:29:25.680Z,28.33
2018-07-28T08:31:54.300Z,28.35
2018-07-28T08:34:22.861Z,28.35
2018-07-28T08:36:51.614Z,28.37
2018-07-28T08:39:20.222Z,28.39
2018-07-28T08:41:49.666Z,28.43
2018-07-28T08:44:18.268Z,28.47
2018-07-28T08:46:47.547Z,28.50
2018-07-28T08:49:16.154Z,28.53
2018-07-28T08:51:44.710Z,28.54
2018-07-28T08:54:13.257Z,28.55
2018-07-28T08:56:41.763Z,28.57
2018-07-28T08:59:10.232Z,28.57
2018-07-28T09:01:38.946Z,28.60
2018-07-28T09:04:07.445Z,28.61
2018-07-28T09:06:35.928Z,28.62
2018-07-28T09:09:06.609Z,28.63
2018-07-28T09:11:35.063Z,28.65
2018-07-28T09:14:03.679Z,28.67
2018-07-28T09:16:32.186Z,28.70
2018-07-28T09:19:00.639Z,28.71
2018-07-28T09:21:29.133Z,28.74
2018-07-28T09:23:57.591Z,28.78
2018-07-28T09:26:26.160Z,28.77
2018-07-28T09:28:54.636Z,28.79
2018-07-28T09:31:23.204Z,28.82
2018-07-28T09:33:51.671Z,28.82
2018-07-28T09:36:20.120Z,28.86
2018-07-28T09:38:48.689Z,28.83
2018-07-28T09:41:17.220Z,28.89
2018-07-28T09:43:46.026Z,28.90
2018-07-28T09:46:14.855Z,28.92
2018-07-28T09:48:43.394Z,28.90
2018-07-28T09:51:12.553Z,28.91
2018-07-28T09:53:41.067Z,28.95
2018-07-28T09:56:09.663Z,29.00
2018-07-28T09:58:38.552Z,29.00
2018-07-28T10:01:12.433Z,29.05
2018-07-28T10:03:41.288Z,29.06
2018-07-28T10:06:09.970Z,29.08
2018-07-28T10:08:38.576Z,29.09
2018-07-28T10:11:07.259Z,29.05
2018-07-28T10:13:35.837Z,29.10
2018-07-28T10:16:04.380Z,29.15
2018-07-28T10:18:32.883Z,29.08
2018-07-28T10:21:01.441Z,29.08
2018-07-28T10:23:30.076Z,29.10
2018-07-28T10:25:58.640Z,17.26
2018-07-28T10:28:27.361Z,29.22
2018-07-28T10:30:55.884Z,29.24
2018-07-28T10:33:24.533Z,29.25
2018-07-28T10:35:53.255Z,29.28
2018-07-28T10:38:21.851Z,29.29
2018-07-28T10:40:50.676Z,29.31
2018-07-28T10:43:19.176Z,29.32
2018-07-28T10:45:47.740Z,29.35
2018-07-28T10:48:16.262Z,29.37
2018-07-28T10:50:44.804Z,29.39
2018-07-28T10:53:13.289Z,29.42
2018-07-28T10:55:41.765Z,29.44
2018-07-28T10:58:10.247Z,29.46
2018-07-28T11:00:38.783Z,29.47
2018-07-28T11:03:07.235Z,29.49
2018-07-28T11:05:35.690Z,29.50
2018-07-28T11:08:04.213Z,29.53
2018-07-28T11:10:32.708Z,29.53
2018-07-28T11:13:01.169Z,29.55
2018-07-28T11:15:29.680Z,29.56
2018-07-28T11:17:58.152Z,29.57
2018-07-28T11:20:26.595Z,29.61
2018-07-28T11:22:55.188Z,29.62
2018-07-28T11:25:23.652Z,29.63
2018-07-28T11:27:52.122Z,29.63
2018-07-28T11:30:20.612Z,29.65
2018-07-28T11:33:01.374Z,29.63
2018-07-28T11:35:41.168Z,29.64
2018-07-28T11:38:20.903Z,29.64
2018-07-28T11:41:00.687Z,29.63
2018-07-28T11:43:40.417Z,29.63
2018-07-28T11:46:08.943Z,29.60
2018-07-28T11:48:37.884Z,29.61
2018-07-28T11:51:06.832Z,29.62
2018-07-28T11:53:35.609Z,29.61
2018-07-28T11:56:04.609Z,29.62
2018-07-28T11:58:33.378Z,29.61
2018-07-28T12:01:02.137Z,29.61
2018-07-28T12:03:30.604Z,29.60
2018-07-28T12:05:59.063Z,29.61
2018-07-28T12:08:27.524Z,29.61
2018-07-28T12:10:55.976Z,29.03
2018-07-28T12:13:24.427Z,29.62
2018-07-28T12:15:52.927Z,29.63
2018-07-28T12:18:21.540Z,29.65
2018-07-28T12:20:49.965Z,29.66
2018-07-28T12:23:18.524Z,29.66
2018-07-28T12:25:47.084Z,29.70
2018-07-28T12:28:16.185Z,29.70
2018-07-28T12:30:44.867Z,29.71
2018-07-28T12:33:13.572Z,29.72
2018-07-28T12:35:42.033Z,29.73
2018-07-28T12:38:10.516Z,29.74
2018-07-28T12:40:39.025Z,29.75
2018-07-28T12:43:07.524Z,29.78
2018-07-28T12:45:36.469Z,29.80
2018-07-28T12:48:06.093Z,29.80
2018-07-28T12:50:34.572Z,29.82
2018-07-28T12:53:03.105Z,29.82
2018-07-28T12:55:31.690Z,29.83
2018-07-28T12:58:00.068Z,29.83
2018-07-28T13:00:28.625Z,29.83
2018-07-28T13:02:57.104Z,29.84
2018-07-28T13:05:26.732Z,29.83
2018-07-28T13:07:55.488Z,29.83
2018-07-28T13:10:23.931Z,29.82
2018-07-28T13:12:52.616Z,29.81
2018-07-28T13:15:21.380Z,29.82
2018-07-28T13:17:50.160Z,29.82
2018-07-28T13:20:18.642Z,29.81
2018-07-28T13:22:47.192Z,29.81
2018-07-28T13:25:15.684Z,29.81
2018-07-28T13:27:45.282Z,29.80
2018-07-28T13:30:14.016Z,29.79
2018-07-28T13:32:42.621Z,29.81
2018-07-28T13:35:11.418Z,29.81
2018-07-28T13:37:39.993Z,29.80
2018-07-28T13:40:08.819Z,29.82
2018-07-28T13:42:37.665Z,29.81
2018-07-28T13:45:06.729Z,29.82
2018-07-28T13:47:35.664Z,29.83
2018-07-28T13:50:04.437Z,29.84
2018-07-28T13:52:32.967Z,29.84
2018-07-28T13:55:01.568Z,29.86
2018-07-28T13:57:30.079Z,29.87
2018-07-28T13:59:58.600Z,29.88
2018-07-28T14:02:27.091Z,29.90
2018-07-28T14:04:55.818Z,29.92
2018-07-28T14:07:24.437Z,29.92
2018-07-28T14:09:52.964Z,29.94
2018-07-28T14:12:21.736Z,29.95
2018-07-28T14:14:50.248Z,29.95
2018-07-28T14:17:18.773Z,29.95
2018-07-28T14:19:47.950Z,29.97
2018-07-28T14:23:19.977Z,29.98
2018-07-28T14:25:48.502Z,29.98
2018-07-28T14:28:17.046Z,29.98
2018-07-28T14:30:45.586Z,29.98
2018-07-28T14:33:14.094Z,29.98
2018-07-28T14:35:42.729Z,29.98
2018-07-28T14:38:11.197Z,29.98
2018-07-28T14:40:39.665Z,30.00
2018-07-28T14:43:08.234Z,30.01
2018-07-28T14:45:36.862Z,30.03
2018-07-28T14:48:05.604Z,30.03
2018-07-28T14:50:34.207Z,30.03
2018-07-28T14:53:03.704Z,30.03
2018-07-28T14:55:32.298Z,30.05
2018-07-28T14:58:00.798Z,30.04
2018-07-28T15:00:29.272Z,30.04
2018-07-28T15:02:57.826Z,30.04
2018-07-28T15:05:26.308Z,30.03
2018-07-28T15:07:54.898Z,30.04
2018-07-28T15:10:23.385Z,30.04
2018-07-28T15:12:52.000Z,30.04
2018-07-28T15:15:20.725Z,30.04
2018-07-28T15:17:49.322Z,30.04
2018-07-28T15:20:18.516Z,30.04
2018-07-28T15:22:47.080Z,30.05
2018-07-28T15:25:15.548Z,30.06
2018-07-28T15:27:44.033Z,30.06
2018-07-28T15:30:12.536Z,30.07
2018-07-28T15:32:41.019Z,30.08
2018-07-28T15:35:09.536Z,30.10
2018-07-28T15:37:38.009Z,30.09
2018-07-28T15:40:06.493Z,30.09
2018-07-28T15:42:34.956Z,30.10
2018-07-28T15:45:03.474Z,30.09
2018-07-28T15:47:31.979Z,30.10
2018-07-28T15:50:00.468Z,30.10
2018-07-28T15:52:29.027Z,30.13
2018-07-28T15:54:57.504Z,30.12
2018-07-28T15:57:25.967Z,30.13
2018-07-28T15:59:54.557Z,30.12
2018-07-28T16:02:23.100Z,30.13
2018-07-28T16:04:51.615Z,30.14
2018-07-28T16:07:20.232Z,30.14
2018-07-28T16:09:48.796Z,30.14
2018-07-28T16:12:17.275Z,30.14
2018-07-28T16:14:45.848Z,30.13
2018-07-28T16:17:14.336Z,30.11
2018-07-28T16:19:42.979Z,30.11
2018-07-28T16:22:11.469Z,30.11
2018-07-28T16:24:40.093Z,30.10
2018-07-28T16:27:08.569Z,30.10
2018-07-28T16:29:37.124Z,30.10
2018-07-28T16:32:05.621Z,30.09
2018-07-28T16:34:34.211Z,30.09
2018-07-28T16:37:02.787Z,30.08
2018-07-28T16:39:31.368Z,30.07
2018-07-28T16:41:59.965Z,30.08
2018-07-28T16:44:28.445Z,30.06
2018-07-28T16:46:56.964Z,29.94
2018-07-28T16:49:25.464Z,30.09
2018-07-28T16:51:54.101Z,30.07
2018-07-28T16:54:23.141Z,30.06
2018-07-28T16:56:51.960Z,30.06
2018-07-28T16:59:20.834Z,30.06
2018-07-28T17:01:49.795Z,30.05
2018-07-28T17:04:18.853Z,30.05
2018-07-28T17:06:47.847Z,30.04
2018-07-28T17:09:16.739Z,30.02
2018-07-28T17:11:45.572Z,30.03
2018-07-28T17:14:14.583Z,30.03
2018-07-28T17:16:43.060Z,30.01
2018-07-28T17:19:11.609Z,30.00
2018-07-28T17:21:40.090Z,29.99
2018-07-28T17:24:08.692Z,29.98
2018-07-28T17:26:37.231Z,29.99
2018-07-28T17:29:05.723Z,29.97
2018-07-28T17:31:34.179Z,29.97
2018-07-28T17:34:02.645Z,29.96
2018-07-28T17:36:31.228Z,29.95
2018-07-28T17:38:59.707Z,29.95
2018-07-28T17:41:28.205Z,29.93
2018-07-28T17:43:56.683Z,29.93
2018-07-28T17:46:25.175Z,29.94
2018-07-28T17:48:53.641Z,29.92
2018-07-28T17:51:22.121Z,29.93
2018-07-28T17:53:50.646Z,29.93
2018-07-28T17:56:19.785Z,29.91
2018-07-28T17:58:48.286Z,29.92
2018-07-28T18:01:16.741Z,29.90
2018-07-28T18:03:45.281Z,29.88
2018-07-28T18:06:13.768Z,29.88
2018-07-28T18:08:42.238Z,29.87
2018-07-28T18:11:10.768Z,29.86
2018-07-28T18:13:39.257Z,29.83
2018-07-28T18:16:07.727Z,29.81
2018-07-28T18:18:36.280Z,29.82
2018-07-28T18:21:04.791Z,29.78
2018-07-28T18:23:33.268Z,29.80
2018-07-28T18:26:01.792Z,29.78
2018-07-28T18:28:30.263Z,29.78
2018-07-28T18:30:58.711Z,29.78
2018-07-28T18:33:27.189Z,29.78
2018-07-28T18:35:55.689Z,29.78
2018-07-28T18:38:24.169Z,29.76
2018-07-28T18:40:52.681Z,29.75
2018-07-28T18:43:21.384Z,29.74
2018-07-28T18:45:49.980Z,29.76
2018-07-28T18:48:18.484Z,29.75
2018-07-28T18:50:46.950Z,29.75
2018-07-28T18:53:15.412Z,29.74
2018-07-28T18:55:43.954Z,29.78
2018-07-28T18:58:12.428Z,29.82
2018-07-28T19:00:40.932Z,29.82
2018-07-28T19:03:09.385Z,29.81
2018-07-28T19:05:37.858Z,29.80
2018-07-28T19:08:06.622Z,29.77
2018-07-28T19:10:35.137Z,29.78
2018-07-28T19:13:09.026Z,29.77
2018-07-28T19:15:37.495Z,29.74
2018-07-28T19:18:11.174Z,29.73
2018-07-28T19:20:39.629Z,29.72
2018-07-28T19:23:13.392Z,29.70
2018-07-28T19:25:41.857Z,29.72
2018-07-28T19:28:15.639Z,29.71
2018-07-28T19:30:44.204Z,29.70
2018-07-28T19:33:12.675Z,29.69
2018-07-28T19:35:46.440Z,29.71
2018-07-28T19:38:15.005Z,29.69
2018-07-28T19:40:43.559Z,29.68
2018-07-28T19:43:12.103Z,29.69
2018-07-28T19:45:40.635Z,29.68
2018-07-28T19:48:09.277Z,29.68
2018-07-28T19:50:37.869Z,29.67
2018-07-28T19:53:06.776Z,29.63
2018-07-28T19:55:35.315Z,29.64
2018-07-28T19:58:03.870Z,29.64
2018-07-28T20:00:32.445Z,29.63
2018-07-28T20:03:00.923Z,29.62
2018-07-28T20:05:29.413Z,29.63
2018-07-28T20:07:57.885Z,29.60
2018-07-28T20:10:26.657Z,29.60
2018-07-28T20:12:55.159Z,29.60
2018-07-28T20:15:23.696Z,29.59
2018-07-28T20:17:52.251Z,29.58
2018-07-28T20:20:20.849Z,29.56
2018-07-28T20:22:49.359Z,29.58
2018-07-28T20:25:17.857Z,29.58
2018-07-28T20:27:46.325Z,29.58
2018-07-28T20:30:14.875Z,29.58
2018-07-28T20:32:43.526Z,29.57
2018-07-28T20:35:12.220Z,29.58
2018-07-28T20:37:40.837Z,29.58
2018-07-28T20:40:09.454Z,29.57
2018-07-28T20:42:37.951Z,29.58
2018-07-28T20:45:06.476Z,29.56
2018-07-28T20:47:35.066Z,29.57
2018-07-28T20:50:03.630Z,29.56
2018-07-28T20:52:32.191Z,29.54
2018-07-28T20:55:00.920Z,29.55
2018-07-28T20:57:29.420Z,29.53
2018-07-28T20:59:58.062Z,29.52
2018-07-28T21:02:26.733Z,29.53
2018-07-28T21:04:56.071Z,29.53
2018-07-28T21:07:24.554Z,29.53
2018-07-28T21:09:53.164Z,29.52
2018-07-28T21:12:22.024Z,29.53
2018-07-28T21:14:51.045Z,29.51
2018-07-28T21:17:19.655Z,29.50
2018-07-28T21:19:48.465Z,29.52
2018-07-28T21:22:17.403Z,29.52
2018-07-28T21:24:46.068Z,29.51
2018-07-28T21:27:14.543Z,29.51
2018-07-28T21:29:43.446Z,29.51
2018-07-28T21:32:12.029Z,29.50
2018-07-28T21:34:40.755Z,29.49
2018-07-28T21:37:09.468Z,29.48
2018-07-28T21:39:38.058Z,29.48
2018-07-28T21:42:06.868Z,29.49
2018-07-28T21:44:35.432Z,29.50
2018-07-28T21:47:03.963Z,29.48
2018-07-28T21:49:32.532Z,29.47
2018-07-28T21:52:01.078Z,29.46
2018-07-28T21:54:29.582Z,29.45
2018-07-28T21:56:58.287Z,29.47
2018-07-28T21:59:26.826Z,29.46
2018-07-28T22:01:55.412Z,29.47
2018-07-28T22:04:27.531Z,29.46
2018-07-28T22:06:56.335Z,29.43
2018-07-28T22:09:25.048Z,29.44
2018-07-28T22:11:53.638Z,29.44
2018-07-28T22:14:22.500Z,29.42
2018-07-28T22:16:51.164Z,29.41
2018-07-28T22:19:20.128Z,29.35
2018-07-28T22:21:48.666Z,29.42
2018-07-28T22:24:17.424Z,29.41
2018-07-28T22:26:46.147Z,29.42
2018-07-28T22:29:15.244Z,29.43
2018-07-28T22:31:43.783Z,29.42
2018-07-28T22:34:12.280Z,29.41
2018-07-28T22:36:40.946Z,29.41
2018-07-28T22:39:10.773Z,29.41
2018-07-28T22:41:39.461Z,29.40
2018-07-28T22:44:08.001Z,29.37
2018-07-28T22:46:36.845Z,29.37
2018-07-28T22:49:05.612Z,29.32
2018-07-28T22:51:34.185Z,29.34
2018-07-28T22:54:02.685Z,29.37
2018-07-28T22:56:31.204Z,29.38
2018-07-28T22:58:59.807Z,29.38
2018-07-28T23:01:28.340Z,29.35
2018-07-28T23:03:56.847Z,29.37
2018-07-28T23:06:25.364Z,29.38
2018-07-28T23:08:53.887Z,29.36
2018-07-28T23:11:22.412Z,29.36
2018-07-28T23:13:50.993Z,29.36
2018-07-28T23:16:19.519Z,29.36
2018-07-28T23:18:48.065Z,29.37
2018-07-28T23:21:16.599Z,29.37
2018-07-28T23:23:45.112Z,29.35
2018-07-28T23:26:13.630Z,29.36
2018-07-28T23:28:42.128Z,29.34
2018-07-28T23:31:10.840Z,29.34
2018-07-28T23:33:39.379Z,29.34
2018-07-28T23:36:08.017Z,29.34
2018-07-28T23:38:36.651Z,29.35
2018-07-28T23:41:05.191Z,29.35
2018-07-28T23:43:33.813Z,29.34
2018-07-28T23:46:02.337Z,29.34
2018-07-28T23:48:30.968Z,29.33
2018-07-28T23:50:59.526Z,29.31
2018-07-28T23:53:28.007Z,29.32
2018-07-28T23:55:56.496Z,29.33
2018-07-28T23:58:25.053Z,29.33
